createdAt,value
2023-01-28T00:01:18.914Z,12.70
2023-01-28T00:03:45.330Z,11.23
2023-01-28T00:06:15.008Z,11.73
2023-01-28T00:08:41.705Z,11.17
2023-01-28T00:11:11.299Z,11.57
2023-01-28T00:13:38.217Z,12.47
2023-01-28T00:16:07.077Z,11.03
2023-01-28T00:18:33.861Z,12.17
2023-01-28T00:21:05.587Z,11.50
2023-01-28T00:23:35.464Z,11.10
2023-01-28T00:26:05.314Z,9.33
2023-01-28T00:28:31.960Z,12.97
2023-01-28T00:30:58.569Z,13.50
2023-01-28T00:33:25.238Z,11.93
2023-01-28T00:36:09.129Z,14.20
2023-01-28T00:38:35.692Z,13.63
2023-01-28T00:41:13.682Z,11.10
2023-01-28T00:43:41.120Z,12.00
2023-01-28T00:46:09.673Z,13.10
2023-01-28T00:48:37.534Z,11.90
2023-01-28T00:51:04.414Z,12.47
2023-01-28T00:53:31.141Z,10.77
2023-01-28T00:55:57.822Z,10.47
2023-01-28T00:58:24.201Z,12.30
2023-01-28T01:00:51.186Z,11.50
2023-01-28T01:03:19.638Z,11.53
2023-01-28T01:05:47.628Z,10.87
2023-01-28T01:08:14.273Z,10.60
2023-01-28T01:10:41.069Z,11.73
2023-01-28T01:13:08.642Z,11.07
2023-01-28T01:15:35.134Z,11.93
2023-01-28T01:18:01.833Z,11.33
2023-01-28T01:20:29.713Z,10.80
2023-01-28T01:22:58.963Z,10.97
2023-01-28T01:25:25.292Z,9.63
2023-01-28T01:27:51.648Z,9.17
2023-01-28T01:30:18.183Z,10.53
2023-01-28T01:32:44.722Z,9.47
2023-01-28T01:35:11.368Z,9.97
2023-01-28T01:37:37.860Z,8.53
2023-01-28T01:40:06.251Z,9.23
2023-01-28T01:42:33.133Z,9.13
2023-01-28T01:45:04.810Z,8.40
2023-01-28T01:47:56.242Z,8.87
2023-01-28T01:50:42.642Z,8.63
2023-01-28T01:53:16.595Z,9.00
2023-01-28T01:55:47.493Z,8.43
2023-01-28T02:00:43.249Z,7.50
2023-01-28T02:03:12.245Z,8.13
2023-01-28T02:05:41.416Z,9.30
2023-01-28T02:08:08.567Z,7.97
2023-01-28T02:10:34.997Z,8.40
2023-01-28T02:13:01.461Z,9.27
2023-01-28T02:15:27.882Z,8.47
2023-01-28T02:17:54.954Z,8.07
2023-01-28T02:20:26.190Z,7.90
2023-01-28T02:23:08.061Z,8.10
2023-01-28T02:25:40.258Z,9.13
2023-01-28T02:28:17.148Z,8.27
2023-01-28T02:30:58.657Z,7.57
2023-01-28T02:33:34.074Z,8.20
2023-01-28T02:36:10.095Z,7.67
2023-01-28T02:38:42.616Z,7.93
2023-01-28T02:41:15.707Z,8.57
2023-01-28T02:43:44.772Z,8.57
2023-01-28T02:46:34.689Z,8.57
2023-01-28T02:49:02.560Z,8.30
2023-01-28T02:51:29.297Z,8.03
2023-01-28T02:54:11.081Z,8.07
2023-01-28T02:56:53.743Z,8.47
2023-01-28T02:59:29.186Z,8.70
2023-01-28T03:02:14.602Z,8.27
2023-01-28T03:04:53.424Z,7.47
2023-01-28T03:07:20.379Z,9.47
2023-01-28T03:09:48.668Z,8.67
2023-01-28T03:12:25.439Z,8.60
2023-01-28T03:15:07.000Z,8.13
2023-01-28T03:17:51.320Z,8.43
2023-01-28T03:20:18.108Z,7.57
2023-01-28T03:22:48.071Z,7.10
2023-01-28T03:25:18.352Z,8.07
2023-01-28T03:27:53.991Z,7.55
2023-01-28T03:30:31.699Z,7.30
2023-01-28T03:32:59.375Z,8.20
2023-01-28T03:35:30.496Z,9.47
2023-01-28T03:37:57.147Z,8.30
2023-01-28T03:40:24.592Z,7.77
2023-01-28T03:42:51.034Z,8.43
2023-01-28T03:45:17.891Z,7.17
2023-01-28T03:47:44.339Z,8.90
2023-01-28T03:50:11.377Z,9.33
2023-01-28T03:52:38.162Z,7.93
2023-01-28T03:55:05.267Z,7.67
2023-01-28T03:57:32.259Z,8.53
2023-01-28T03:59:58.679Z,7.47
2023-01-28T04:02:25.088Z,8.70
2023-01-28T04:04:51.669Z,8.63
2023-01-28T04:07:18.212Z,8.67
2023-01-28T04:09:45.164Z,8.27
2023-01-28T04:12:11.726Z,8.40
2023-01-28T04:14:38.376Z,8.50
2023-01-28T04:17:04.827Z,8.43
2023-01-28T04:19:31.197Z,8.27
2023-01-28T04:21:57.713Z,9.20
2023-01-28T04:24:24.580Z,8.80
2023-01-28T04:26:51.172Z,9.57
2023-01-28T04:29:17.669Z,8.37
2023-01-28T04:31:44.108Z,9.43
2023-01-28T04:34:10.667Z,9.00
2023-01-28T04:36:38.781Z,10.13
2023-01-28T04:39:05.323Z,10.37
2023-01-28T04:41:31.939Z,9.17
2023-01-28T04:43:58.572Z,9.63
2023-01-28T04:46:25.063Z,8.23
2023-01-28T04:48:51.653Z,9.43
2023-01-28T04:51:18.296Z,7.73
2023-01-28T04:53:44.884Z,10.07
2023-01-28T04:56:11.268Z,8.83
2023-01-28T04:58:37.760Z,9.03
2023-01-28T05:01:05.412Z,9.30
2023-01-28T05:03:31.883Z,9.50
2023-01-28T05:05:58.483Z,8.27
2023-01-28T05:08:24.863Z,8.27
2023-01-28T05:10:51.222Z,9.90
2023-01-28T05:13:17.607Z,8.23
2023-01-28T05:15:43.947Z,9.23
2023-01-28T05:18:10.387Z,8.47
2023-01-28T05:20:36.707Z,10.83
2023-01-28T05:23:03.217Z,10.80
2023-01-28T05:25:29.672Z,9.57
2023-01-28T05:27:56.106Z,9.37
2023-01-28T05:30:22.697Z,8.07
2023-01-28T05:32:49.189Z,9.17
2023-01-28T05:35:16.605Z,8.50
2023-01-28T05:37:43.620Z,7.97
2023-01-28T05:40:10.954Z,7.87
2023-01-28T05:42:37.446Z,8.60
2023-01-28T05:45:04.448Z,8.47
2023-01-28T05:47:33.570Z,8.30
2023-01-28T05:49:59.979Z,8.43
2023-01-28T05:52:26.323Z,7.20
2023-01-28T05:54:52.969Z,8.13
2023-01-28T05:57:19.314Z,8.07
2023-01-28T05:59:45.846Z,8.60
2023-01-28T06:02:12.256Z,8.07
2023-01-28T06:04:38.603Z,8.97
2023-01-28T06:07:05.102Z,9.07
2023-01-28T06:09:31.750Z,9.10
2023-01-28T06:11:58.449Z,8.67
2023-01-28T06:14:25.149Z,9.57
2023-01-28T06:16:52.424Z,13.63
2023-01-28T06:19:18.791Z,8.50
2023-01-28T06:21:45.466Z,9.50
2023-01-28T06:24:12.430Z,9.00
2023-01-28T06:26:38.946Z,8.20
2023-01-28T06:29:05.356Z,8.37
2023-01-28T06:31:31.741Z,8.70
2023-01-28T06:33:58.127Z,9.37
2023-01-28T06:36:24.666Z,8.60
2023-01-28T06:38:51.144Z,8.97
2023-01-28T06:41:17.569Z,8.50
2023-01-28T06:43:44.070Z,9.23
2023-01-28T06:46:10.500Z,8.17
2023-01-28T06:48:37.022Z,7.57
2023-01-28T06:51:04.013Z,7.60
2023-01-28T06:53:30.522Z,7.73
2023-01-28T06:55:58.088Z,8.67
2023-01-28T06:58:24.739Z,9.60
2023-01-28T07:00:51.075Z,11.07
2023-01-28T07:03:17.802Z,12.63
2023-01-28T07:05:44.469Z,16.37
2023-01-28T07:08:10.979Z,9.53
2023-01-28T07:10:37.410Z,9.07
2023-01-28T07:13:04.964Z,8.37
2023-01-28T07:15:31.478Z,9.00
2023-01-28T07:17:58.978Z,9.13
2023-01-28T07:20:26.258Z,8.97
2023-01-28T07:22:52.716Z,10.70
2023-01-28T07:25:19.339Z,12.57
2023-01-28T07:27:50.554Z,19.67
2023-01-28T07:30:19.318Z,12.30
2023-01-28T07:32:46.322Z,9.37
2023-01-28T07:35:13.440Z,9.70
2023-01-28T07:37:40.271Z,9.33
2023-01-28T07:40:07.670Z,9.43
2023-01-28T07:42:34.180Z,8.97
2023-01-28T07:45:00.516Z,8.80
2023-01-28T07:47:26.931Z,8.93
2023-01-28T07:49:53.374Z,9.70
2023-01-28T07:52:21.203Z,9.47
2023-01-28T07:54:47.731Z,14.57
2023-01-28T07:57:14.059Z,15.77
2023-01-28T07:59:40.514Z,24.07
2023-01-28T08:02:11.722Z,14.13
2023-01-28T08:04:38.228Z,9.73
2023-01-28T08:07:06.608Z,11.77
2023-01-28T08:09:34.332Z,10.07
2023-01-28T08:12:04.279Z,16.87
2023-01-28T08:14:30.737Z,14.75
2023-01-28T08:16:57.916Z,10.40
2023-01-28T08:19:24.352Z,10.77
2023-01-28T08:21:51.038Z,10.97
2023-01-28T08:24:19.378Z,9.50
2023-01-28T08:26:48.891Z,13.00
2023-01-28T08:29:16.699Z,11.00
2023-01-28T08:31:43.218Z,11.17
2023-01-28T08:34:09.792Z,10.63
2023-01-28T08:36:36.312Z,9.40
2023-01-28T08:39:02.851Z,10.30
2023-01-28T08:41:30.561Z,9.87
2023-01-28T08:43:57.246Z,9.60
2023-01-28T08:46:23.674Z,9.07
2023-01-28T08:48:50.894Z,9.60
2023-01-28T08:51:17.367Z,10.20
2023-01-28T08:53:43.856Z,9.83
2023-01-28T08:56:10.263Z,9.93
2023-01-28T08:58:36.789Z,13.43
2023-01-28T09:01:07.467Z,11.53
2023-01-28T09:03:34.629Z,10.95
2023-01-28T09:06:02.204Z,13.13
2023-01-28T09:08:30.090Z,10.50
2023-01-28T09:10:57.509Z,10.23
2023-01-28T09:13:25.119Z,9.90
2023-01-28T09:15:56.080Z,10.80
2023-01-28T09:18:22.520Z,10.90
2023-01-28T09:20:48.930Z,9.97
2023-01-28T09:23:15.772Z,10.63
2023-01-28T09:25:42.433Z,11.17
2023-01-28T09:28:10.055Z,11.10
2023-01-28T09:30:37.909Z,11.17
2023-01-28T09:33:04.912Z,11.20
2023-01-28T09:35:33.431Z,10.07
2023-01-28T09:37:59.989Z,9.73
2023-01-28T09:40:47.599Z,9.57
2023-01-28T09:43:50.278Z,10.30
2023-01-28T09:46:17.348Z,11.48
2023-01-28T09:48:52.239Z,11.20
2023-01-28T09:51:28.759Z,11.10
2023-01-28T09:54:01.059Z,10.40
2023-01-28T09:56:43.474Z,10.90
2023-01-28T09:59:21.823Z,11.83
2023-01-28T10:02:24.535Z,12.10
2023-01-28T10:05:16.362Z,10.47
2023-01-28T10:07:51.159Z,10.83
2023-01-28T10:10:33.414Z,12.50
2023-01-28T10:13:28.722Z,10.63
2023-01-28T10:16:00.183Z,9.57
2023-01-28T10:18:38.471Z,10.15
2023-01-28T10:21:20.216Z,10.10
2023-01-28T10:24:01.639Z,11.03
2023-01-28T10:26:41.521Z,11.60
2023-01-28T10:29:19.663Z,11.43
2023-01-28T10:31:54.587Z,11.37
2023-01-28T10:34:29.061Z,10.15
2023-01-28T10:36:59.644Z,10.82
2023-01-28T10:39:27.256Z,9.80
2023-01-28T10:41:58.224Z,10.60
2023-01-28T10:44:42.402Z,10.27
2023-01-28T10:47:15.503Z,11.07
2023-01-28T10:49:48.253Z,11.00
2023-01-28T10:52:17.730Z,11.90
2023-01-28T10:54:46.249Z,10.53
2023-01-28T10:57:17.743Z,10.40
2023-01-28T10:59:44.229Z,9.83
2023-01-28T11:02:26.345Z,10.87
2023-01-28T11:05:25.854Z,10.57
2023-01-28T11:08:12.568Z,12.10
2023-01-28T11:10:39.520Z,14.73
2023-01-28T11:13:23.067Z,10.73
2023-01-28T11:16:05.218Z,12.43
2023-01-28T11:18:47.073Z,10.47
2023-01-28T11:21:26.472Z,11.10
2023-01-28T11:23:59.345Z,10.13
2023-01-28T11:26:31.017Z,10.17
2023-01-28T11:28:57.810Z,13.13
2023-01-28T11:31:27.165Z,9.67
2023-01-28T11:34:02.722Z,12.43
2023-01-28T11:36:35.006Z,11.67
2023-01-28T11:39:26.069Z,10.93
2023-01-28T11:44:24.922Z,12.43
2023-01-28T11:47:32.618Z,12.23
2023-01-28T11:50:08.417Z,11.43
2023-01-28T11:53:06.038Z,11.83
2023-01-28T11:56:00.152Z,11.40
2023-01-28T11:58:35.008Z,10.33
2023-01-28T12:01:04.751Z,11.85
2023-01-28T12:03:46.933Z,12.10
2023-01-28T12:06:16.331Z,13.30
2023-01-28T12:08:58.698Z,11.67
2023-01-28T12:11:51.448Z,11.13
2023-01-28T12:14:29.793Z,10.27
2023-01-28T12:17:04.778Z,10.23
2023-01-28T12:20:10.153Z,10.93
2023-01-28T12:22:59.734Z,10.60
2023-01-28T12:25:42.989Z,9.63
2023-01-28T12:28:41.178Z,11.57
2023-01-28T12:31:25.993Z,9.97
2023-01-28T12:34:10.506Z,11.27
2023-01-28T12:36:51.631Z,11.73
2023-01-28T12:39:30.316Z,11.13
2023-01-28T12:42:12.947Z,11.67
2023-01-28T12:45:05.400Z,10.20
2023-01-28T12:47:37.848Z,10.57
2023-01-28T12:50:18.171Z,11.63
2023-01-28T12:52:51.037Z,10.13
2023-01-28T12:55:23.124Z,13.33
2023-01-28T12:57:51.562Z,20.00
2023-01-28T13:00:28.942Z,32.83
2023-01-28T13:03:20.030Z,14.30
2023-01-28T13:08:26.401Z,11.83
2023-01-28T13:10:56.777Z,14.57
2023-01-28T13:13:38.392Z,13.05
2023-01-28T13:16:07.590Z,13.70
2023-01-28T13:18:45.448Z,12.47
2023-01-28T13:21:14.699Z,19.03
2023-01-28T13:23:48.541Z,14.37
2023-01-28T13:26:24.437Z,12.70
2023-01-28T13:28:52.756Z,12.87
2023-01-28T13:31:24.418Z,13.53
2023-01-28T13:33:53.922Z,12.73
2023-01-28T13:36:31.546Z,13.57
2023-01-28T13:39:03.125Z,14.03
2023-01-28T13:41:41.073Z,14.07
2023-01-28T13:44:30.470Z,14.77
2023-01-28T13:47:07.870Z,14.27
2023-01-28T13:49:41.588Z,14.37
2023-01-28T13:52:16.727Z,12.17
2023-01-28T13:54:57.266Z,11.87
2023-01-28T13:58:01.254Z,14.68
2023-01-28T14:00:46.422Z,11.77
2023-01-28T14:03:31.363Z,10.87
2023-01-28T14:06:17.960Z,10.90
2023-01-28T14:09:25.543Z,9.50
2023-01-28T14:12:16.326Z,11.37
2023-01-28T14:15:07.752Z,10.05
2023-01-28T14:17:44.070Z,10.00
2023-01-28T14:20:17.318Z,10.07
2023-01-28T14:22:44.305Z,7.33
2023-01-28T14:25:29.908Z,8.70
2023-01-28T14:27:56.934Z,7.83
2023-01-28T14:30:41.633Z,7.87
2023-01-28T14:33:12.048Z,7.40
2023-01-28T14:35:44.291Z,8.75
2023-01-28T14:38:16.648Z,8.57
2023-01-28T14:40:43.907Z,8.60
2023-01-28T14:43:18.666Z,9.50
2023-01-28T14:45:50.880Z,8.47
2023-01-28T14:48:34.549Z,7.87
2023-01-28T14:51:16.187Z,8.10
2023-01-28T14:53:49.583Z,9.17
2023-01-28T14:56:30.243Z,8.63
2023-01-28T14:59:10.650Z,7.55
2023-01-28T15:01:44.412Z,8.38
2023-01-28T15:04:28.182Z,7.83
2023-01-28T15:06:55.413Z,7.37
2023-01-28T15:09:23.363Z,8.30
2023-01-28T15:11:55.882Z,7.67
2023-01-28T15:14:31.209Z,7.47
2023-01-28T15:16:59.007Z,7.83
2023-01-28T15:19:37.312Z,7.40
2023-01-28T15:22:08.853Z,8.23
2023-01-28T15:24:36.199Z,7.63
2023-01-28T15:27:03.210Z,10.50
2023-01-28T15:29:36.265Z,8.50
2023-01-28T15:32:06.564Z,9.63
2023-01-28T15:34:33.077Z,10.50
2023-01-28T15:37:01.086Z,9.20
2023-01-28T15:39:29.558Z,7.73
2023-01-28T15:41:59.951Z,7.63
2023-01-28T15:44:33.350Z,5.93
2023-01-28T15:47:01.845Z,6.83
2023-01-28T15:49:34.115Z,9.33
2023-01-28T15:52:00.804Z,7.13
2023-01-28T15:54:27.660Z,6.33
2023-01-28T15:56:54.008Z,7.03
2023-01-28T15:59:28.555Z,6.77
2023-01-28T16:02:24.105Z,7.30
2023-01-28T16:05:07.066Z,6.50
2023-01-28T16:07:42.707Z,7.00
2023-01-28T16:10:21.369Z,6.73
2023-01-28T16:12:53.348Z,7.23
2023-01-28T16:15:21.329Z,7.80
2023-01-28T16:17:51.254Z,6.50
2023-01-28T16:20:29.674Z,7.40
2023-01-28T16:23:00.176Z,7.00
2023-01-28T16:25:29.826Z,6.75
2023-01-28T16:27:58.116Z,6.40
2023-01-28T16:30:24.670Z,7.37
2023-01-28T16:32:51.755Z,7.03
2023-01-28T16:35:21.027Z,7.97
2023-01-28T16:37:49.279Z,7.20
2023-01-28T16:40:25.219Z,6.23
2023-01-28T16:42:54.649Z,17.27
2023-01-28T16:45:23.506Z,8.83
2023-01-28T16:47:50.807Z,7.70
2023-01-28T16:50:18.209Z,6.63
2023-01-28T16:52:48.225Z,6.57
2023-01-28T16:55:20.371Z,7.47
2023-01-28T16:57:49.897Z,6.93
2023-01-28T17:00:22.564Z,7.33
2023-01-28T17:02:53.076Z,6.67
2023-01-28T17:05:25.676Z,8.52
2023-01-28T17:07:52.101Z,6.50
2023-01-28T17:10:19.429Z,6.43
2023-01-28T17:12:48.671Z,6.50
2023-01-28T17:15:18.701Z,7.13
2023-01-28T17:17:48.445Z,6.22
2023-01-28T17:20:19.132Z,6.77
2023-01-28T17:22:48.163Z,6.50
2023-01-28T17:25:15.307Z,6.13
2023-01-28T17:27:42.179Z,7.37
2023-01-28T17:30:09.515Z,7.73
2023-01-28T17:32:38.690Z,7.17
2023-01-28T17:35:07.923Z,7.07
2023-01-28T17:37:34.441Z,8.23
2023-01-28T17:40:00.964Z,7.93
2023-01-28T17:42:28.478Z,7.33
2023-01-28T17:44:55.478Z,7.23
2023-01-28T17:47:22.001Z,9.00
2023-01-28T17:49:48.781Z,9.20
2023-01-28T17:52:15.238Z,9.30
2023-01-28T17:54:42.898Z,8.87
2023-01-28T17:57:09.330Z,8.70
2023-01-28T17:59:35.708Z,9.70
2023-01-28T18:02:02.151Z,10.13
2023-01-28T18:04:30.681Z,10.37
2023-01-28T18:06:57.354Z,7.77
2023-01-28T18:09:23.764Z,8.47
2023-01-28T18:11:50.518Z,8.10
2023-01-28T18:14:17.289Z,8.43
2023-01-28T18:16:43.769Z,8.00
2023-01-28T18:19:11.462Z,7.40
2023-01-28T18:21:52.169Z,8.57
2023-01-28T18:24:21.794Z,8.40
2023-01-28T18:26:48.324Z,9.43
2023-01-28T18:29:21.091Z,8.67
2023-01-28T18:31:48.830Z,9.77
2023-01-28T18:34:16.768Z,8.87
2023-01-28T18:36:43.768Z,8.57
2023-01-28T18:39:14.238Z,8.57
2023-01-28T18:41:41.053Z,8.70
2023-01-28T18:44:12.767Z,7.60
2023-01-28T18:46:41.642Z,7.83
2023-01-28T18:49:08.060Z,8.40
2023-01-28T18:51:35.548Z,7.77
2023-01-28T18:54:05.379Z,7.37
2023-01-28T18:56:33.366Z,7.60
2023-01-28T18:59:03.186Z,9.30
2023-01-28T19:01:30.969Z,8.90
2023-01-28T19:03:58.509Z,11.90
2023-01-28T19:06:28.318Z,8.77
2023-01-28T19:09:04.619Z,10.37
2023-01-28T19:11:31.510Z,9.07
2023-01-28T19:14:00.523Z,9.03
2023-01-28T19:16:27.112Z,9.50
2023-01-28T19:19:00.147Z,8.77
2023-01-28T19:21:28.680Z,8.77
2023-01-28T19:24:01.146Z,8.57
2023-01-28T19:26:30.354Z,7.90
2023-01-28T19:28:57.630Z,8.50
2023-01-28T19:31:25.803Z,8.17
2023-01-28T19:33:58.040Z,8.17
2023-01-28T19:36:27.532Z,8.80
2023-01-28T19:39:01.790Z,8.50
2023-01-28T19:41:29.157Z,8.10
2023-01-28T19:43:57.797Z,8.90
2023-01-28T19:46:24.693Z,7.80
2023-01-28T19:48:53.093Z,8.43
2023-01-28T19:51:20.423Z,8.10
2023-01-28T19:53:51.194Z,7.43
2023-01-28T19:56:19.313Z,8.27
2023-01-28T19:58:47.657Z,7.73
2023-01-28T20:01:17.066Z,7.40
2023-01-28T20:03:45.071Z,7.93
2023-01-28T20:06:16.249Z,7.53
2023-01-28T20:08:43.886Z,8.33
2023-01-28T20:11:13.097Z,7.50
2023-01-28T20:13:43.897Z,8.10
2023-01-28T20:16:22.626Z,9.38
2023-01-28T20:18:54.830Z,9.20
2023-01-28T20:21:22.024Z,8.00
2023-01-28T20:23:51.929Z,8.70
2023-01-28T20:26:20.428Z,8.13
2023-01-28T20:28:47.953Z,8.70
2023-01-28T20:31:14.522Z,8.50
2023-01-28T20:33:44.074Z,7.73
2023-01-28T20:36:13.577Z,7.77
2023-01-28T20:38:45.579Z,7.83
2023-01-28T20:41:14.788Z,8.00
2023-01-28T20:43:43.467Z,9.77
2023-01-28T20:46:20.515Z,8.13
2023-01-28T20:48:47.753Z,7.60
2023-01-28T20:51:19.859Z,8.43
2023-01-28T20:53:47.377Z,8.73
2023-01-28T20:56:15.434Z,8.53
2023-01-28T20:58:41.882Z,8.47
2023-01-28T21:01:16.605Z,8.97
2023-01-28T21:03:44.352Z,8.87
2023-01-28T21:06:10.961Z,8.50
2023-01-28T21:08:37.645Z,9.33
2023-01-28T21:11:06.071Z,9.97
2023-01-28T21:13:33.627Z,9.17
2023-01-28T21:16:00.682Z,8.97
2023-01-28T21:18:27.310Z,8.40
2023-01-28T21:20:54.534Z,9.67
2023-01-28T21:23:24.845Z,8.53
2023-01-28T21:25:52.030Z,11.35
2023-01-28T21:28:19.970Z,10.17
2023-01-28T21:30:46.883Z,9.87
2023-01-28T21:33:13.633Z,11.00
2023-01-28T21:35:42.854Z,13.37
2023-01-28T21:38:10.651Z,10.77
2023-01-28T21:40:38.520Z,10.03
2023-01-28T21:43:05.499Z,10.13
2023-01-28T21:45:32.195Z,11.20
2023-01-28T21:47:58.616Z,11.00
2023-01-28T21:50:25.418Z,11.07
2023-01-28T21:52:51.959Z,10.97
2023-01-28T21:55:18.633Z,11.83
2023-01-28T21:57:45.785Z,11.43
2023-01-28T22:00:13.712Z,12.13
2023-01-28T22:02:40.465Z,11.53
2023-01-28T22:05:08.165Z,10.03
2023-01-28T22:07:34.994Z,10.60
2023-01-28T22:10:02.789Z,10.33
2023-01-28T22:12:29.291Z,10.33
2023-01-28T22:14:55.845Z,9.83
2023-01-28T22:17:22.264Z,10.60
2023-01-28T22:19:48.763Z,10.93
2023-01-28T22:22:16.388Z,10.70
2023-01-28T22:24:43.356Z,10.43
2023-01-28T22:27:10.353Z,10.67
2023-01-28T22:29:36.916Z,11.60
2023-01-28T22:32:06.465Z,12.07
2023-01-28T22:34:33.095Z,11.00
2023-01-28T22:36:59.406Z,10.80
2023-01-28T22:39:25.933Z,11.40
2023-01-28T22:41:52.643Z,12.57
2023-01-28T22:44:19.530Z,12.30
2023-01-28T22:46:46.171Z,13.20
2023-01-28T22:49:13.089Z,12.77
2023-01-28T22:51:39.759Z,12.60
2023-01-28T22:54:06.290Z,12.00
2023-01-28T22:56:32.819Z,12.63
2023-01-28T22:59:02.007Z,11.50
2023-01-28T23:01:29.068Z,11.63
2023-01-28T23:03:56.421Z,10.70
2023-01-28T23:06:25.675Z,11.53
2023-01-28T23:08:55.203Z,11.50
2023-01-28T23:11:22.044Z,11.80
2023-01-28T23:13:48.583Z,12.07
2023-01-28T23:16:15.127Z,12.23
2023-01-28T23:18:41.592Z,10.23
2023-01-28T23:21:19.579Z,11.03
2023-01-28T23:23:46.013Z,11.53
2023-01-28T23:26:12.722Z,10.50
2023-01-28T23:28:39.549Z,10.70
2023-01-28T23:31:07.345Z,10.50
2023-01-28T23:33:35.296Z,9.70
2023-01-28T23:36:02.080Z,10.97
2023-01-28T23:38:28.436Z,10.73
2023-01-28T23:40:54.863Z,11.07
2023-01-28T23:43:21.907Z,11.73
2023-01-28T23:45:49.907Z,11.30
2023-01-28T23:48:16.638Z,10.67
2023-01-28T23:50:43.072Z,11.40
2023-01-28T23:53:12.003Z,10.20
2023-01-28T23:55:39.728Z,10.93
2023-01-28T23:58:07.000Z,11.10
